Station History

Weather Underground - logo

Station Historical Data
Daily Summary for October 10, 2017 Units:  English    Metric   Both
« Previous Day
Next Day »
Daily Weekly Monthly Yearly Custom
  High: Low: Average:
Temperature: TemperatureF °F 47.2 °F 65.9 °F
Dew Point: DewpointF °F 30.0 °F 42.5 °F
Humidity: Humidity % 14 % 51 %
Wind Speed: WindSpeedMPH mph 0.0 mph 0.5 mph
Wind Gust: WindSpeedGustMPH mph - -
Wind:- - West
Pressure: PressureIn in 29.80 in -
Precipitation: 0.00 in    
Historical Graphs
 
 
Tabular Data for October 10, 2017
Time Temperature Dew Point Pressure Wind Wind Speed Wind Gust Humidity Rainfall Rate (Hourly)
TemperatureF °F DewpointF °F PressureIn in Calm     Humidity % HourlyPrecipIn in
00:01 55.3 °F 46.8 °F 29.92 in Calm     73 % 0.00 in
00:06 55.1 °F 46.6 °F 29.92 in Calm     73 % 0.00 in
00:11 54.8 °F 46.7 °F 29.92 in Calm     74 % 0.00 in
00:16 54.6 °F 46.8 °F 29.92 in Calm     75 % 0.00 in
00:21 54.3 °F 46.9 °F 29.92 in Calm     76 % 0.00 in
00:26 54.0 °F 47.0 °F 29.92 in Calm     77 % 0.00 in
00:31 53.6 °F 46.6 °F 29.92 in Calm     77 % 0.00 in
00:36 53.4 °F 46.4 °F 29.92 in Calm     77 % 0.00 in
00:41 53.3 °F 45.6 °F 29.92 in Calm     75 % 0.00 in
00:46 53.3 °F 45.6 °F 29.92 in Calm     75 % 0.00 in
00:51 53.6 °F 45.9 °F 29.92 in Calm     75 % 0.00 in
00:56 53.7 °F 45.6 °F 29.93 in Calm     74 % 0.00 in
01:01 53.5 °F 45.8 °F 29.93 in Calm     75 % 0.00 in
01:06 53.4 °F 45.7 °F 29.93 in Calm     75 % 0.00 in
01:11 53.4 °F 46.0 °F 29.93 in Calm     76 % 0.00 in
01:16 53.6 °F 46.2 °F 29.93 in Calm     76 % 0.00 in
01:21 53.5 °F 46.1 °F 29.93 in Calm     76 % 0.00 in
01:22 53.4 °F 46.0 °F 29.93 in Calm     76 % 0.00 in
01:27 53.3 °F 46.3 °F 29.93 in Calm     77 % 0.00 in
01:32 53.0 °F 45.6 °F 29.93 in Calm     76 % 0.00 in
01:42 52.9 °F 45.9 °F 29.94 in Calm     77 % 0.00 in
01:47 52.9 °F 45.5 °F 29.93 in Calm     76 % 0.00 in
01:52 52.9 °F 45.5 °F 29.94 in Calm     76 % 0.00 in
01:57 53.0 °F 44.9 °F 29.94 in Calm     74 % 0.00 in
02:02 53.0 °F 44.9 °F 29.94 in Calm     74 % 0.00 in
02:07 53.0 °F 44.6 °F 29.94 in Calm     73 % 0.00 in
02:12 53.1 °F 45.0 °F 29.94 in Calm     74 % 0.00 in
02:17 53.1 °F 45.0 °F 29.93 in Calm     74 % 0.00 in
02:22 52.9 °F 44.8 °F 29.94 in Calm     74 % 0.00 in
02:27 52.8 °F 45.1 °F 29.93 in Calm     75 % 0.00 in
02:32 52.4 °F 44.7 °F 29.94 in Calm     75 % 0.00 in
02:38 52.4 °F 45.1 °F 29.93 in Calm     76 % 0.00 in
02:43 52.4 °F 44.7 °F 29.93 in Calm     75 % 0.00 in
02:48 52.3 °F 44.3 °F 29.93 in Calm     74 % 0.00 in
02:53 52.3 °F 44.6 °F 29.93 in Calm     75 % 0.00 in
02:58 52.5 °F 44.4 °F 29.93 in Calm     74 % 0.00 in
03:03 52.4 °F 44.4 °F 29.93 in Calm     74 % 0.00 in
03:08 52.2 °F 44.9 °F 29.93 in Calm     76 % 0.00 in
03:13 51.6 °F 45.0 °F 29.93 in SW 1.2 mph   78 % 0.00 in
03:18 51.0 °F 45.0 °F 29.93 in Calm     80 % 0.00 in
03:23 50.6 °F 44.7 °F 29.92 in Calm     80 % 0.00 in
03:28 50.4 °F 44.8 °F 29.92 in Calm     81 % 0.00 in
03:33 50.4 °F 45.1 °F 29.92 in Calm     82 % 0.00 in
03:38 50.4 °F 45.1 °F 29.92 in Calm     82 % 0.00 in
03:43 50.6 °F 44.7 °F 29.92 in Calm     80 % 0.00 in
03:48 50.5 °F 44.6 °F 29.92 in Calm     80 % 0.00 in
03:53 50.7 °F 45.4 °F 29.92 in Calm     82 % 0.00 in
03:58 50.8 °F 45.5 °F 29.92 in Calm     82 % 0.00 in
04:03 50.8 °F 45.2 °F 29.92 in Calm     81 % 0.00 in
04:08 50.8 °F 45.2 °F 29.92 in Calm     81 % 0.00 in
04:13 50.8 °F 45.2 °F 29.92 in Calm     81 % 0.00 in
04:18 50.7 °F 45.7 °F 29.92 in Calm     83 % 0.00 in
04:23 50.5 °F 45.2 °F 29.92 in Calm     82 % 0.00 in
04:28 50.3 °F 45.0 °F 29.91 in Calm     82 % 0.00 in
04:33 50.1 °F 44.5 °F 29.92 in Calm     81 % 0.00 in
04:38 49.8 °F 44.5 °F 29.92 in Calm     82 % 0.00 in
04:43 49.6 °F 44.6 °F 29.92 in Calm     83 % 0.00 in
04:48 49.6 °F 45.0 °F 29.92 in Calm     84 % 0.00 in
04:53 49.4 °F 44.8 °F 29.92 in Calm     84 % 0.00 in
04:58 49.3 °F 44.4 °F 29.92 in Calm     83 % 0.00 in
05:03 49.1 °F 44.2 °F 29.92 in Calm     83 % 0.00 in
05:08 48.8 °F 44.2 °F 29.92 in Calm     84 % 0.00 in
05:13 48.7 °F 44.1 °F 29.92 in Calm     84 % 0.00 in
05:18 48.5 °F 44.2 °F 29.92 in Calm     85 % 0.00 in
05:23 48.5 °F 44.5 °F 29.92 in Calm     86 % 0.00 in
05:28 48.5 °F 44.2 °F 29.93 in Calm     85 % 0.00 in
05:33 48.3 °F 44.0 °F 29.93 in Calm     85 % 0.00 in
05:38 48.3 °F 44.3 °F 29.93 in Calm     86 % 0.00 in
05:44 48.3 °F 44.0 °F 29.93 in Calm     85 % 0.00 in
05:49 48.1 °F 43.8 °F 29.93 in Calm     85 % 0.00 in
05:54 48.0 °F 43.7 °F 29.93 in Calm     85 % 0.00 in
05:59 48.0 °F 44.0 °F 29.93 in Calm     86 % 0.00 in
06:04 48.1 °F 44.1 °F 29.93 in Calm     86 % 0.00 in
06:09 48.2 °F 44.5 °F 29.93 in Calm     87 % 0.00 in
06:19 48.2 °F 44.5 °F 29.94 in Calm     87 % 0.00 in
06:24 48.1 °F 44.1 °F 29.94 in Calm     86 % 0.00 in
06:29 48.1 °F 44.4 °F 29.94 in Calm     87 % 0.00 in
06:34 48.1 °F 44.1 °F 29.94 in Calm     86 % 0.00 in
06:39 47.9 °F 43.9 °F 29.94 in Calm     86 % 0.00 in
06:44 47.6 °F 43.3 °F 29.94 in Calm     85 % 0.00 in
06:49 47.6 °F 43.6 °F 29.94 in Calm     86 % 0.00 in
06:56 47.4 °F 43.4 °F 29.94 in Calm     86 % 0.00 in
07:01 47.2 °F 43.2 °F 29.94 in Calm     86 % 0.00 in
07:06 47.2 °F 43.8 °F 29.95 in Calm     88 % 0.00 in
07:11 47.5 °F 43.8 °F 29.95 in Calm     87 % 0.00 in
07:16 47.8 °F 44.1 °F 29.95 in Calm     87 % 0.00 in
07:21 48.2 °F 43.9 °F 29.95 in Calm     85 % 0.00 in
07:26 48.3 °F 43.7 °F 29.95 in Calm     84 % 0.00 in
07:31 48.5 °F 43.6 °F 29.95 in Calm     83 % 0.00 in
07:36 48.9 °F 44.0 °F 29.95 in Calm     83 % 0.00 in
07:41 49.0 °F 43.7 °F 29.95 in Calm     82 % 0.00 in
07:46 49.5 °F 43.9 °F 29.95 in Calm     81 % 0.00 in
07:51 50.1 °F 44.2 °F 29.95 in Calm     80 % 0.00 in
07:56 50.6 °F 44.3 °F 29.95 in Calm     79 % 0.00 in
08:01 51.9 °F 44.2 °F 29.95 in Calm     75 % 0.00 in
08:06 53.0 °F 44.2 °F 29.95 in Calm     72 % 0.00 in
08:11 54.1 °F 46.0 °F 29.95 in Calm     74 % 0.00 in
08:16 55.3 °F 47.9 °F 29.95 in Calm     76 % 0.00 in
08:21 56.2 °F 47.7 °F 29.95 in Calm     73 % 0.00 in
08:31 57.6 °F 48.6 °F 29.96 in Calm     72 % 0.00 in
08:36 58.4 °F 47.5 °F 29.96 in Calm     67 % 0.00 in
08:41 59.5 °F 47.7 °F 29.96 in Calm     65 % 0.00 in
08:46 60.5 °F 47.8 °F 29.96 in Calm     63 % 0.00 in
08:51 61.3 °F 48.6 °F 29.96 in Calm     63 % 0.00 in
08:56 62.3 °F 48.2 °F 29.96 in Calm     60 % 0.00 in
09:06 64.0 °F 47.5 °F 29.96 in SW 1.2 mph   55 % 0.00 in
09:11 64.9 °F 48.8 °F 29.96 in Calm     56 % 0.00 in
09:16 65.6 °F 48.5 °F 29.96 in Calm     54 % 0.00 in
09:22 66.3 °F 48.7 °F 29.96 in Calm     53 % 0.00 in
09:27 67.0 °F 47.7 °F 29.96 in Calm     50 % 0.00 in
09:37 68.5 °F 46.3 °F 29.96 in Calm     45 % 0.00 in
09:42 69.1 °F 43.8 °F 29.96 in WSW 1.2 mph 1.2 mph 40 % 0.00 in
09:47 69.8 °F 42.3 °F 29.96 in Calm     37 % 0.00 in
09:52 70.3 °F 41.3 °F 29.95 in Calm     35 % 0.00 in
09:57 70.6 °F 42.3 °F 29.95 in WNW 1.2 mph   36 % 0.00 in
10:02 71.2 °F 42.1 °F 29.95 in Calm     35 % 0.00 in
10:05 71.4 °F 41.6 °F 29.95 in Calm     34 % 0.00 in
10:10 72.0 °F 42.1 °F 29.95 in Calm     34 % 0.00 in
10:15 72.5 °F 41.7 °F 29.95 in WNW 1.2 mph 1.2 mph 33 % 0.00 in
10:20 72.7 °F 41.1 °F 29.94 in Calm     32 % 0.00 in
10:25 73.1 °F 39.8 °F 29.94 in WSW 1.2 mph 1.2 mph 30 % 0.00 in
10:30 73.6 °F 40.2 °F 29.94 in WNW 1.2 mph 1.2 mph 30 % 0.00 in
10:36 73.8 °F 42.1 °F 29.94 in Calm   0.5 mph 32 % 0.00 in
10:41 74.1 °F 43.9 °F 29.94 in Calm     34 % 0.00 in
10:46 75.0 °F 43.1 °F 29.94 in WSW 1.2 mph 1.2 mph 32 % 0.00 in
10:51 75.2 °F 41.6 °F 29.94 in WNW 1.0 mph 1.0 mph 30 % 0.00 in
10:56 75.4 °F 41.8 °F 29.94 in WNW 1.2 mph 1.2 mph 30 % 0.00 in
11:01 75.6 °F 42.0 °F 29.94 in Calm     30 % 0.00 in
11:06 75.8 °F 43.0 °F 29.94 in NNW 1.2 mph 1.2 mph 31 % 0.00 in
11:11 76.1 °F 42.4 °F 29.94 in NW 1.2 mph 1.2 mph 30 % 0.00 in
11:16 76.2 °F 40.7 °F 29.94 in WSW 2.3 mph 2.3 mph 28 % 0.00 in
11:21 76.5 °F 42.7 °F 29.93 in East 1.2 mph 1.2 mph 30 % 0.00 in
11:26 77.0 °F 43.2 °F 29.93 in West 1.2 mph 1.2 mph 30 % 0.00 in
11:31 77.2 °F 43.4 °F 29.93 in SW 2.0 mph 2.0 mph 30 % 0.00 in
11:36 77.6 °F 41.9 °F 29.93 in WNW 1.2 mph 1.2 mph 28 % 0.00 in
11:41 77.7 °F 41.0 °F 29.93 in NW 1.2 mph 1.2 mph 27 % 0.00 in
11:46 78.3 °F 41.6 °F 29.93 in NW 1.2 mph 1.2 mph 27 % 0.00 in
11:51 78.4 °F 40.7 °F 29.93 in WSW 1.2 mph   26 % 0.00 in
11:56 78.9 °F 39.0 °F 29.93 in WNW 1.0 mph 1.0 mph 24 % 0.00 in
12:01 79.0 °F 40.2 °F 29.92 in West 3.5 mph 3.5 mph 25 % 0.00 in
12:06 79.4 °F 41.5 °F 29.92 in SSW 1.2 mph 1.2 mph 26 % 0.00 in
12:11 80.0 °F 43.0 °F 29.91 in NW 1.2 mph 1.2 mph 27 % 0.00 in
12:16 80.0 °F 40.0 °F 29.91 in Calm   0.2 mph 24 % 0.00 in
12:21 80.1 °F 40.0 °F 29.91 in NNW 2.3 mph 2.3 mph 24 % 0.00 in
12:26 80.5 °F 40.4 °F 29.91 in NW 1.2 mph   24 % 0.00 in
12:31 80.9 °F 40.7 °F 29.90 in WNW 1.0 mph 1.0 mph 24 % 0.00 in
12:36 81.4 °F 40.0 °F 29.90 in West 1.2 mph 1.2 mph 23 % 0.00 in
12:41 81.7 °F 40.3 °F 29.90 in NW 1.2 mph 1.2 mph 23 % 0.00 in
12:46 82.1 °F 35.7 °F 29.90 in WNW 1.2 mph 1.2 mph 19 % 0.00 in
12:51 82.0 °F 38.2 °F 29.89 in NW 1.2 mph   21 % 0.00 in
12:56 82.3 °F 41.9 °F 29.89 in WNW 2.0 mph 2.0 mph 24 % 0.00 in
13:01 82.6 °F 38.7 °F 29.89 in WNW 2.0 mph 2.0 mph 21 % 0.00 in
13:06 82.6 °F 34.8 °F 29.89 in WNW 1.2 mph 1.2 mph 18 % 0.00 in
13:11 83.1 °F 40.3 °F 29.89 in SSE 1.2 mph 1.2 mph 22 % 0.00 in
13:17 83.5 °F 39.4 °F 29.88 in NNE 3.0 mph 3.0 mph 21 % 0.00 in
13:22 83.3 °F 40.5 °F 29.88 in NW 2.3 mph 2.3 mph 22 % 0.00 in
13:27 83.3 °F 40.5 °F 29.88 in NNE 1.2 mph 1.2 mph 22 % 0.00 in
13:32 83.6 °F 41.9 °F 29.88 in West 2.3 mph 2.3 mph 23 % 0.00 in
13:37 83.4 °F 40.6 °F 29.87 in NW 4.6 mph 4.6 mph 22 % 0.00 in
13:42 83.1 °F 37.9 °F 29.87 in NW 2.3 mph 2.3 mph 20 % 0.00 in
13:47 83.3 °F 38.0 °F 29.87 in NW 2.3 mph 2.3 mph 20 % 0.00 in
13:52 83.4 °F 38.1 °F 29.87 in NW 1.2 mph 1.2 mph 20 % 0.00 in
13:57 84.0 °F 37.3 °F 29.86 in NW 1.2 mph 1.2 mph 19 % 0.00 in
14:02 84.7 °F 37.9 °F 29.86 in NNW 2.3 mph 2.3 mph 19 % 0.00 in
14:12 84.3 °F 34.7 °F 29.86 in Calm     17 % 0.00 in
14:17 84.7 °F 33.5 °F 29.86 in West 1.2 mph 1.2 mph 16 % 0.00 in
14:22 84.8 °F 32.0 °F 29.85 in West 2.3 mph 2.3 mph 15 % 0.00 in
14:27 84.8 °F 35.1 °F 29.85 in NW 2.3 mph 2.3 mph 17 % 0.00 in
14:32 84.6 °F 31.8 °F 29.85 in North 1.2 mph 1.2 mph 15 % 0.00 in
14:37 84.8 °F 37.9 °F 29.84 in NW 2.3 mph 2.3 mph 19 % 0.00 in
14:42 84.7 °F 35.0 °F 29.84 in WNW 1.2 mph 1.2 mph 17 % 0.00 in
14:47 84.5 °F 30.1 °F 29.85 in West 1.2 mph 1.2 mph 14 % 0.00 in
14:52 84.4 °F 30.0 °F 29.84 in WNW 1.2 mph 1.2 mph 14 % 0.00 in
14:57 84.7 °F 36.5 °F 29.84 in NNW 2.3 mph 2.3 mph 18 % 0.00 in
15:02 85.1 °F 39.5 °F 29.84 in West 1.2 mph 1.2 mph 20 % 0.00 in
15:07 85.6 °F 38.6 °F 29.84 in WNW 1.2 mph 1.2 mph 19 % 0.00 in
15:12 85.5 °F 34.2 °F 29.84 in NNW 1.2 mph   16 % 0.00 in
15:13 85.5 °F 35.7 °F 29.84 in NNW 1.2 mph 1.2 mph 17 % 0.00 in
15:18 85.5 °F 34.2 °F 29.84 in WNW 3.5 mph 3.5 mph 16 % 0.00 in
15:23 85.4 °F 35.6 °F 29.83 in NW 1.2 mph   17 % 0.00 in
15:28 85.1 °F 35.4 °F 29.83 in NW 2.3 mph 2.3 mph 17 % 0.00 in
15:33 84.7 °F 36.5 °F 29.83 in NW 2.3 mph   18 % 0.00 in
15:38 84.6 °F 33.4 °F 29.83 in NW 1.0 mph   16 % 0.00 in
15:43 85.0 °F 33.8 °F 29.83 in WNW 1.2 mph 1.2 mph 16 % 0.00 in
15:49 85.0 °F 35.3 °F 29.83 in NW 2.3 mph 2.3 mph 17 % 0.00 in
15:54 84.6 °F 37.8 °F 29.83 in WNW 1.2 mph 1.2 mph 19 % 0.00 in
15:59 84.3 °F 34.7 °F 29.82 in NNE 1.2 mph 1.2 mph 17 % 0.00 in
16:04 84.2 °F 33.1 °F 29.82 in Calm     16 % 0.00 in
16:09 84.1 °F 37.4 °F 29.82 in NW 2.3 mph 2.3 mph 19 % 0.00 in
16:14 83.9 °F 34.4 °F 29.82 in NW 2.3 mph 2.3 mph 17 % 0.00 in
16:19 83.4 °F 38.1 °F 29.82 in NW 1.2 mph 1.2 mph 20 % 0.00 in
16:24 82.9 °F 33.6 °F 29.82 in NW 2.3 mph 2.3 mph 17 % 0.00 in
16:29 82.7 °F 37.5 °F 29.82 in WNW 1.2 mph 1.2 mph 20 % 0.00 in
16:34 82.4 °F 38.5 °F 29.82 in WNW 1.2 mph 1.2 mph 21 % 0.00 in
16:39 82.4 °F 38.5 °F 29.82 in WNW 1.2 mph 1.2 mph 21 % 0.00 in
16:44 82.3 °F 39.6 °F 29.82 in Calm     22 % 0.00 in
16:49 82.1 °F 37.0 °F 29.82 in Calm     20 % 0.00 in
16:54 81.9 °F 39.3 °F 29.81 in Calm     22 % 0.00 in
16:59 81.6 °F 40.2 °F 29.81 in Calm     23 % 0.00 in
17:04 81.3 °F 39.9 °F 29.81 in Calm     23 % 0.00 in
17:09 81.0 °F 40.8 °F 29.81 in Calm     24 % 0.00 in
17:14 80.8 °F 39.5 °F 29.81 in Calm     23 % 0.00 in
17:19 80.6 °F 38.2 °F 29.80 in Calm     22 % 0.00 in
17:24 80.6 °F 40.5 °F 29.80 in WNW 1.0 mph   24 % 0.00 in
17:29 80.6 °F 41.5 °F 29.80 in Calm     25 % 0.00 in
17:34 80.1 °F 43.1 °F 29.80 in WNW 1.0 mph 1.0 mph 27 % 0.00 in
17:39 79.5 °F 43.5 °F 29.80 in North 1.2 mph 1.2 mph 28 % 0.00 in
17:49 78.5 °F 42.7 °F 29.80 in Calm     28 % 0.00 in
17:54 77.9 °F 43.1 °F 29.80 in Calm     29 % 0.00 in
17:56 77.7 °F 42.9 °F 29.80 in Calm     29 % 0.00 in
18:01 77.2 °F 44.2 °F 29.80 in Calm     31 % 0.00 in
18:06 76.6 °F 46.1 °F 29.80 in Calm     34 % 0.00 in
18:11 75.7 °F 44.5 °F 29.80 in Calm     33 % 0.00 in
18:16 74.9 °F 45.4 °F 29.80 in Calm     35 % 0.00 in
18:21 74.2 °F 45.5 °F 29.80 in Calm     36 % 0.00 in
18:26 73.5 °F 45.6 °F 29.80 in Calm     37 % 0.00 in
18:31 73.3 °F 44.0 °F 29.80 in Calm     35 % 0.00 in
18:36 73.4 °F 44.1 °F 29.80 in NNW 1.2 mph   35 % 0.00 in
18:41 73.5 °F 43.4 °F 29.80 in NNW 1.2 mph 1.2 mph 34 % 0.00 in
18:46 73.3 °F 44.0 °F 29.80 in Calm     35 % 0.00 in
18:51 72.7 °F 43.5 °F 29.80 in Calm     35 % 0.00 in
18:56 72.3 °F 47.3 °F 29.81 in Calm     41 % 0.00 in
19:01 71.2 °F 47.6 °F 29.81 in Calm     43 % 0.00 in
19:06 70.6 °F 46.4 °F 29.81 in Calm     42 % 0.00 in
19:11 70.6 °F 45.1 °F 29.81 in Calm     40 % 0.00 in
19:16 70.5 °F 46.3 °F 29.81 in Calm     42 % 0.00 in
19:21 70.0 °F 48.3 °F 29.81 in Calm     46 % 0.00 in
19:26 69.4 °F 47.7 °F 29.81 in Calm     46 % 0.00 in
19:31 68.8 °F 46.6 °F 29.81 in Calm     45 % 0.00 in
19:36 68.5 °F 45.7 °F 29.81 in Calm     44 % 0.00 in
19:46 68.1 °F 46.5 °F 29.81 in Calm     46 % 0.00 in
19:47 68.1 °F 47.1 °F 29.81 in Calm     47 % 0.00 in
19:49 68.0 °F 45.9 °F 29.81 in Calm     45 % 0.00 in
19:52 68.0 °F 45.9 °F 29.81 in Calm     45 % 0.00 in
19:57 68.0 °F 45.9 °F 29.81 in Calm     45 % 0.00 in
Park Place, Exeter, Tulare County, California, USA
Compliments of Weather Underground - 2.5 mb